createdAt,value
2024-05-09T00:00:31.643Z,102039.69
2024-05-09T00:03:05.496Z,102037.69
2024-05-09T00:05:32.318Z,102047.97
2024-05-09T00:07:58.950Z,102038.47
2024-05-09T00:10:33.434Z,102042.75
2024-05-09T00:13:04.044Z,102038.50
2024-05-09T00:15:30.567Z,102036.66
2024-05-09T00:17:57.409Z,102039.16
2024-05-09T00:20:28.500Z,102040.94
2024-05-09T00:23:02.809Z,102039.22
2024-05-09T00:25:29.367Z,102040.81
2024-05-09T00:27:55.980Z,102035.72
2024-05-09T00:30:31.589Z,102036.53
2024-05-09T00:33:02.004Z,102041.56
2024-05-09T00:35:28.872Z,102026.25
2024-05-09T00:37:55.797Z,102034.03
2024-05-09T00:40:30.645Z,102035.56
2024-05-09T00:43:07.645Z,102027.78
2024-05-09T00:45:35.079Z,102036.19
2024-05-09T00:48:04.345Z,102037.03
2024-05-09T00:50:36.386Z,102030.03
2024-05-09T00:53:06.948Z,102028.28
2024-05-09T00:55:35.892Z,102029.09
2024-05-09T00:58:04.640Z,102016.22
2024-05-09T01:00:38.543Z,102020.34
2024-05-09T01:03:08.447Z,102023.56
2024-05-09T01:05:38.158Z,102014.16
2024-05-09T01:08:05.659Z,102020.78
2024-05-09T01:10:35.016Z,102022.41
2024-05-09T01:13:06.813Z,102028.38
2024-05-09T01:15:34.580Z,102029.19
2024-05-09T01:18:05.490Z,102038.53
2024-05-09T01:20:40.335Z,102036.59
2024-05-09T01:23:10.374Z,102036.47
2024-05-09T01:25:37.693Z,102042.28
2024-05-09T01:28:04.403Z,102042.19
2024-05-09T01:30:35.382Z,102039.56
2024-05-09T01:33:06.152Z,102046.91
2024-05-09T01:35:34.487Z,102039.84
2024-05-09T01:38:01.217Z,102043.28
2024-05-09T01:40:36.425Z,102039.84
2024-05-09T01:43:06.297Z,102039.09
2024-05-09T01:45:33.049Z,102039.03
2024-05-09T01:47:59.962Z,102029.38
2024-05-09T01:50:36.797Z,102036.09
2024-05-09T01:53:07.149Z,102030.75
2024-05-09T01:55:33.787Z,102032.50
2024-05-09T01:58:00.311Z,102037.59
2024-05-09T02:00:34.512Z,102036.66
2024-05-09T02:03:08.502Z,102037.47
2024-05-09T02:05:35.499Z,102033.91
2024-05-09T02:08:02.180Z,102033.78
2024-05-09T02:10:32.597Z,102039.63
2024-05-09T02:12:59.982Z,102037.09
2024-05-09T02:15:26.564Z,102032.63
2024-05-09T02:17:53.500Z,102040.06
2024-05-09T02:20:30.057Z,102043.34
2024-05-09T02:23:02.499Z,102036.59
2024-05-09T02:25:30.500Z,102036.66
2024-05-09T02:27:57.219Z,102044.28
2024-05-09T02:30:31.001Z,102036.53
2024-05-09T02:33:05.940Z,102046.66
2024-05-09T02:35:32.595Z,102036.47
2024-05-09T02:37:59.210Z,102034.59
2024-05-09T02:40:33.637Z,102031.25
2024-05-09T02:43:04.219Z,102027.78
2024-05-09T02:45:30.904Z,102027.53
2024-05-09T02:47:57.877Z,102030.63
2024-05-09T02:50:33.126Z,102022.09
2024-05-09T02:53:04.466Z,102024.59
2024-05-09T02:55:31.160Z,102016.81
2024-05-09T02:57:57.767Z,102020.00
2024-05-09T03:00:33.647Z,102020.81
2024-05-09T03:03:05.404Z,102024.84
2024-05-09T03:05:32.319Z,102023.00
2024-05-09T03:07:58.987Z,102029.91
2024-05-09T03:10:28.744Z,102024.91
2024-05-09T03:12:58.845Z,102025.63
2024-05-09T03:15:25.420Z,102029.72
2024-05-09T03:17:52.131Z,102026.22
2024-05-09T03:20:23.906Z,102025.25
2024-05-09T03:22:56.732Z,102030.16
2024-05-09T03:25:23.481Z,102028.34
2024-05-09T03:27:50.096Z,102035.91
2024-05-09T03:30:28.909Z,102032.41
2024-05-09T03:33:02.465Z,102036.78
2024-05-09T03:35:29.279Z,102029.84
2024-05-09T03:37:56.005Z,102028.13
2024-05-09T03:40:26.539Z,102029.94
2024-05-09T03:42:55.689Z,102032.47
2024-05-09T03:45:22.169Z,102034.38
2024-05-09T03:47:49.007Z,102035.19
2024-05-09T03:50:22.687Z,102041.00
2024-05-09T03:52:56.108Z,102033.38
2024-05-09T03:55:22.645Z,102034.31
2024-05-09T03:57:49.172Z,102029.41
2024-05-09T04:00:22.113Z,102026.94
2024-05-09T04:02:53.277Z,102032.09
2024-05-09T04:05:19.944Z,102026.13
2024-05-09T04:07:46.667Z,102029.53
2024-05-09T04:10:21.146Z,102029.72
2024-05-09T04:12:54.451Z,102031.59
2024-05-09T04:15:21.034Z,102034.06
2024-05-09T04:17:47.796Z,102038.41
2024-05-09T04:20:24.219Z,102046.06
2024-05-09T04:22:59.913Z,102042.00
2024-05-09T04:25:26.479Z,102040.50
2024-05-09T04:27:53.271Z,102037.25
2024-05-09T04:30:26.464Z,102045.03
2024-05-09T04:33:02.312Z,102041.72
2024-05-09T04:35:28.968Z,102051.28
2024-05-09T04:37:55.582Z,102049.66
2024-05-09T04:40:28.562Z,102050.59
2024-05-09T04:43:00.239Z,102050.00
2024-05-09T04:45:26.768Z,102045.78
2024-05-09T04:47:54.544Z,102046.84
2024-05-09T04:50:29.946Z,102049.47
2024-05-09T04:53:03.217Z,102047.81
2024-05-09T04:55:29.834Z,102052.34
2024-05-09T04:57:56.475Z,102050.81
2024-05-09T05:00:32.317Z,102056.03
2024-05-09T05:03:04.693Z,102058.72
2024-05-09T05:05:31.561Z,102057.31
2024-05-09T05:07:58.136Z,102048.06
2024-05-09T05:10:33.045Z,102050.09
2024-05-09T05:13:02.228Z,102057.28
2024-05-09T05:15:28.813Z,102055.69
2024-05-09T05:17:55.552Z,102059.41
2024-05-09T05:20:30.606Z,102064.88
2024-05-09T05:23:01.228Z,102064.16
2024-05-09T05:25:27.871Z,102060.41
2024-05-09T05:27:54.442Z,102057.91
2024-05-09T05:30:25.451Z,102063.09
2024-05-09T05:32:56.109Z,102056.66
2024-05-09T05:35:22.880Z,102054.28
2024-05-09T05:37:49.539Z,102057.44
2024-05-09T05:40:25.292Z,102060.22
2024-05-09T05:42:59.610Z,102063.25
2024-05-09T05:45:26.161Z,102063.56
2024-05-09T05:47:54.131Z,102061.84
2024-05-09T05:50:27.719Z,102063.50
2024-05-09T05:53:01.245Z,102067.94
2024-05-09T05:55:27.819Z,102066.53
2024-05-09T05:57:54.344Z,102063.19
2024-05-09T06:00:29.318Z,102054.09
2024-05-09T06:03:02.193Z,102059.72
2024-05-09T06:05:29.084Z,102047.09
2024-05-09T06:07:55.850Z,102062.00
2024-05-09T06:10:26.336Z,102062.25
2024-05-09T06:13:01.456Z,102060.88
2024-05-09T06:15:27.966Z,102049.09
2024-05-09T06:17:54.726Z,102049.59
2024-05-09T06:20:27.803Z,102053.31
2024-05-09T06:23:01.605Z,102057.69
2024-05-09T06:25:28.303Z,102048.28
2024-05-09T06:27:55.099Z,102048.38
2024-05-09T06:33:04.940Z,102049.03
2024-05-09T06:35:31.988Z,102050.06
2024-05-09T06:37:58.611Z,102052.75
2024-05-09T06:40:30.024Z,102044.59
2024-05-09T06:43:03.233Z,102051.72
2024-05-09T06:45:29.802Z,102049.31
2024-05-09T06:47:56.510Z,102039.63
2024-05-09T06:50:24.588Z,102044.06
2024-05-09T06:52:54.936Z,102034.81
2024-05-09T06:55:21.488Z,102034.00
2024-05-09T06:57:48.179Z,102023.91
2024-05-09T07:00:22.800Z,102025.16
2024-05-09T07:02:57.615Z,102024.38
2024-05-09T07:05:25.055Z,102024.38
2024-05-09T07:07:51.677Z,102034.00
2024-05-09T07:10:25.753Z,102032.44
2024-05-09T07:12:59.037Z,102034.41
2024-05-09T07:15:25.649Z,102028.66
2024-05-09T07:17:52.332Z,102029.69
2024-05-09T07:20:27.652Z,102027.34
2024-05-09T07:23:02.723Z,102030.81
2024-05-09T07:25:29.563Z,102029.63
2024-05-09T07:27:56.203Z,102021.03
2024-05-09T07:30:27.775Z,102025.44
2024-05-09T07:33:00.335Z,102025.63
2024-05-09T07:35:27.295Z,102029.31
2024-05-09T07:37:54.057Z,102023.28
2024-05-09T07:40:29.020Z,102028.66
2024-05-09T07:43:06.350Z,102021.81
2024-05-09T07:52:23.283Z,102025.31
2024-05-09T07:53:38.424Z,102017.06
2024-05-09T07:56:06.492Z,102029.44
2024-05-09T07:58:33.234Z,102022.63
2024-05-09T08:00:59.962Z,102027.81
2024-05-09T08:03:26.738Z,102024.34
2024-05-09T08:05:53.628Z,102023.47
2024-05-09T08:08:20.393Z,102027.16
2024-05-09T08:10:47.083Z,102023.59
2024-05-09T08:13:13.971Z,102019.44
2024-05-09T08:15:40.502Z,102017.81
2024-05-09T08:18:10.270Z,102019.72
2024-05-09T08:20:38.581Z,102015.53
2024-05-09T08:23:05.444Z,102021.59
2024-05-09T08:25:31.991Z,102017.25
2024-05-09T08:27:58.643Z,102016.47
2024-05-09T08:30:32.630Z,102013.06
2024-05-09T08:33:04.014Z,102009.66
2024-05-09T08:35:32.291Z,102001.94
2024-05-09T08:37:59.196Z,102006.28
2024-05-09T08:40:33.321Z,102002.84
2024-05-09T08:43:04.685Z,101998.56
2024-05-09T08:45:34.666Z,102009.75
2024-05-09T08:48:03.054Z,102003.72
2024-05-09T08:50:36.572Z,102002.81
2024-05-09T08:53:06.062Z,102006.28
2024-05-09T08:55:32.665Z,102005.38
2024-05-09T08:58:03.487Z,102003.63
2024-05-09T09:00:36.718Z,101996.59
2024-05-09T09:03:07.387Z,101990.50
2024-05-09T09:05:37.491Z,101987.09
2024-05-09T09:08:07.549Z,101993.06
2024-05-09T09:10:37.204Z,101995.47
2024-05-09T09:13:04.029Z,101992.03
2024-05-09T09:15:30.792Z,101990.28
2024-05-09T09:17:57.962Z,101994.31
2024-05-09T09:20:33.226Z,101997.50
2024-05-09T09:23:02.598Z,101999.09
2024-05-09T09:25:29.259Z,101989.56
2024-05-09T09:27:57.772Z,101990.16
2024-05-09T09:30:34.609Z,101987.19
2024-05-09T09:33:04.729Z,101981.09
2024-05-09T09:35:31.459Z,101984.41
2024-05-09T09:38:02.135Z,101985.00
2024-05-09T09:40:40.392Z,101987.16
2024-05-09T09:43:18.493Z,101984.56
2024-05-09T09:45:46.410Z,101981.19
2024-05-09T09:48:15.206Z,101983.25
2024-05-09T09:50:42.106Z,101981.84
2024-05-09T09:53:11.179Z,101983.38
2024-05-09T09:55:40.182Z,101973.63
2024-05-09T09:58:09.542Z,101975.47
2024-05-09T10:00:38.769Z,101977.78
2024-05-09T10:03:05.585Z,101977.59
2024-05-09T10:05:33.597Z,101973.31
2024-05-09T10:08:05.250Z,101970.13
2024-05-09T10:10:34.135Z,101976.44
2024-05-09T10:13:05.624Z,101971.06
2024-05-09T10:15:52.938Z,101977.94
2024-05-09T10:18:20.551Z,101968.47
2024-05-09T10:20:47.107Z,101971.34
2024-05-09T10:23:30.712Z,101977.09
2024-05-09T10:26:05.949Z,101972.38
2024-05-09T10:28:34.286Z,101972.84
2024-05-09T10:31:00.923Z,101972.81
2024-05-09T10:33:35.998Z,101972.78
2024-05-09T10:36:03.886Z,101962.44
2024-05-09T10:38:31.251Z,101962.84
2024-05-09T10:41:00.043Z,101962.38
2024-05-09T10:43:27.490Z,101957.41
2024-05-09T10:45:54.394Z,101960.00
2024-05-09T10:48:21.101Z,101952.28
2024-05-09T10:50:47.705Z,101956.31
2024-05-09T10:53:14.215Z,101954.31
2024-05-09T10:55:40.827Z,101950.34
2024-05-09T10:58:16.801Z,101956.47
2024-05-09T11:00:43.580Z,101948.03
2024-05-09T11:03:11.524Z,101948.19
2024-05-09T11:05:41.933Z,101946.13
2024-05-09T11:08:09.142Z,101938.56
2024-05-09T11:10:36.416Z,101938.09
2024-05-09T11:13:05.016Z,101929.19
2024-05-09T11:15:41.791Z,101929.66
2024-05-09T11:18:24.255Z,101930.69
2024-05-09T11:20:52.555Z,101922.16
2024-05-09T11:23:19.799Z,101924.25
2024-05-09T11:25:50.496Z,101924.69
2024-05-09T11:28:18.073Z,101920.63
2024-05-09T11:30:44.793Z,101912.94
2024-05-09T11:33:13.336Z,101920.69
2024-05-09T11:35:41.053Z,101910.91
2024-05-09T11:38:07.640Z,101917.09
2024-05-09T11:40:34.889Z,101910.09
2024-05-09T11:43:01.691Z,101911.69
2024-05-09T11:45:28.473Z,101910.75
2024-05-09T11:47:55.315Z,101910.97
2024-05-09T11:50:27.317Z,101908.34
2024-05-09T11:52:59.035Z,101904.47
2024-05-09T11:55:28.032Z,101895.31
2024-05-09T11:57:55.496Z,101890.78
2024-05-09T12:00:29.624Z,101897.63
2024-05-09T12:03:03.104Z,101888.22
2024-05-09T12:05:29.761Z,101888.34
2024-05-09T12:07:56.710Z,101883.53
2024-05-09T12:10:32.072Z,101885.81
2024-05-09T12:13:01.101Z,101881.81
2024-05-09T12:15:28.028Z,101884.69
2024-05-09T12:17:55.969Z,101885.00
2024-05-09T12:20:32.170Z,101883.16
2024-05-09T12:23:02.384Z,101879.63
2024-05-09T12:25:28.928Z,101883.84
2024-05-09T12:27:55.636Z,101876.41
2024-05-09T12:30:32.712Z,101873.63
2024-05-09T12:33:04.419Z,101873.69
2024-05-09T12:35:31.251Z,101871.34
2024-05-09T12:38:00.370Z,101867.13
2024-05-09T12:40:35.330Z,101863.88
2024-05-09T12:43:05.803Z,101865.00
2024-05-09T12:45:32.635Z,101859.88
2024-05-09T12:47:59.608Z,101865.72
2024-05-09T12:50:32.349Z,101860.72
2024-05-09T12:53:01.442Z,101853.16
2024-05-09T12:55:29.842Z,101853.19
2024-05-09T12:57:58.951Z,101842.00
2024-05-09T13:00:31.484Z,101840.09
2024-05-09T13:03:01.168Z,101837.78
2024-05-09T13:05:28.427Z,101827.66
2024-05-09T13:07:55.580Z,101826.38
2024-05-09T13:10:29.105Z,101823.56
2024-05-09T13:12:59.999Z,101811.63
2024-05-09T13:15:27.098Z,101825.25
2024-05-09T13:17:56.349Z,101816.91
2024-05-09T13:20:31.205Z,101809.88
2024-05-09T13:23:02.607Z,101813.19
2024-05-09T13:25:29.347Z,101805.41
2024-05-09T13:27:56.847Z,101810.09
2024-05-09T13:30:29.881Z,101803.50
2024-05-09T13:33:06.348Z,101803.78
2024-05-09T13:35:33.719Z,101797.44
2024-05-09T13:38:01.720Z,101797.25
2024-05-09T13:40:33.486Z,101797.06
2024-05-09T13:43:02.540Z,101799.56
2024-05-09T13:45:29.242Z,101796.06
2024-05-09T13:47:56.063Z,101788.81
2024-05-09T13:50:31.125Z,101782.34
2024-05-09T13:53:02.077Z,101780.00
2024-05-09T13:55:28.792Z,101785.09
2024-05-09T13:57:55.651Z,101772.38
2024-05-09T14:00:37.651Z,101780.50
2024-05-09T14:03:08.927Z,101777.00
2024-05-09T14:05:35.835Z,101773.84
2024-05-09T14:08:03.018Z,101772.16
2024-05-09T14:10:31.765Z,101775.28
2024-05-09T14:12:59.908Z,101772.53
2024-05-09T14:15:26.612Z,101767.06
2024-05-09T14:17:53.480Z,101771.38
2024-05-09T14:20:29.919Z,101774.63
2024-05-09T14:23:01.317Z,101753.97
2024-05-09T14:25:31.318Z,101757.88
2024-05-09T14:27:58.282Z,101747.63
2024-05-09T14:30:34.075Z,101756.22
2024-05-09T14:33:04.659Z,101750.88
2024-05-09T14:35:31.514Z,101750.59
2024-05-09T14:37:58.178Z,101743.94
2024-05-09T14:40:36.381Z,101742.69
2024-05-09T14:43:08.173Z,101734.25
2024-05-09T14:45:34.978Z,101733.16
2024-05-09T14:48:02.101Z,101732.88
2024-05-09T14:50:35.420Z,101734.56
2024-05-09T14:53:05.602Z,101724.72
2024-05-09T14:55:32.268Z,101719.63
2024-05-09T14:57:58.809Z,101726.91
2024-05-09T15:00:29.199Z,101722.34
2024-05-09T15:03:00.471Z,101715.84
2024-05-09T15:05:27.392Z,101719.78
2024-05-09T15:07:56.875Z,101712.41
2024-05-09T15:10:31.161Z,101704.97
2024-05-09T15:13:01.697Z,101699.78
2024-05-09T15:15:28.289Z,101696.47
2024-05-09T15:17:55.269Z,101697.84
2024-05-09T15:20:30.877Z,101701.53
2024-05-09T15:23:02.170Z,101703.69
2024-05-09T15:25:29.002Z,101699.59
2024-05-09T15:27:55.778Z,101692.94
2024-05-09T15:32:52.231Z,101690.84
2024-05-09T15:35:18.916Z,101681.88
2024-05-09T15:37:45.511Z,101673.19
2024-05-09T15:40:18.379Z,101672.06
2024-05-09T15:42:48.849Z,101672.59
2024-05-09T15:45:15.491Z,101670.84
2024-05-09T15:47:42.138Z,101669.84
2024-05-09T15:50:17.089Z,101667.69
2024-05-09T15:52:47.273Z,101667.75
2024-05-09T15:55:14.112Z,101664.94
2024-05-09T15:57:40.823Z,101666.91
2024-05-09T16:00:12.243Z,101657.66
2024-05-09T16:02:44.673Z,101661.97
2024-05-09T16:05:11.398Z,101660.31
2024-05-09T16:07:38.032Z,101662.75
2024-05-09T16:10:06.849Z,101658.44
2024-05-09T16:12:33.608Z,101663.69
2024-05-09T16:15:00.246Z,101659.41
2024-05-09T16:17:27.067Z,101658.75
2024-05-09T16:19:53.914Z,101655.84
2024-05-09T16:22:20.592Z,101656.72
2024-05-09T16:24:48.137Z,101658.75
2024-05-09T16:27:14.693Z,101658.56
2024-05-09T16:29:41.661Z,101655.25
2024-05-09T16:32:08.354Z,101655.47
2024-05-09T16:34:34.900Z,101650.44
2024-05-09T16:37:01.751Z,101642.72
2024-05-09T16:39:28.278Z,101650.75
2024-05-09T16:41:54.855Z,101650.81
2024-05-09T16:44:21.447Z,101657.00
2024-05-09T16:46:51.120Z,101648.44
2024-05-09T16:49:17.892Z,101644.09
2024-05-09T16:51:44.528Z,101645.00
2024-05-09T16:54:11.107Z,101650.72
2024-05-09T16:56:37.712Z,101650.53
2024-05-09T16:59:04.345Z,101645.53
2024-05-09T17:01:30.983Z,101645.69
2024-05-09T17:03:57.819Z,101648.56
2024-05-09T17:06:24.575Z,101644.28
2024-05-09T17:08:51.224Z,101651.41
2024-05-09T17:11:17.812Z,101640.25
2024-05-09T17:13:45.983Z,101642.78
2024-05-09T17:16:14.411Z,101641.38
2024-05-09T17:18:41.307Z,101641.38
2024-05-09T17:21:07.918Z,101640.75
2024-05-09T17:23:35.143Z,101636.59
2024-05-09T17:26:01.779Z,101643.38
2024-05-09T17:28:28.575Z,101641.88
2024-05-09T17:30:55.265Z,101639.34
2024-05-09T17:33:21.971Z,101640.28
2024-05-09T17:35:48.610Z,101636.00
2024-05-09T17:38:15.404Z,101633.59
2024-05-09T17:40:41.963Z,101639.81
2024-05-09T17:43:10.530Z,101636.44
2024-05-09T17:45:41.792Z,101645.25
2024-05-09T17:48:10.274Z,101644.53
2024-05-09T17:50:38.135Z,101641.94
2024-05-09T17:53:05.981Z,101648.03
2024-05-09T17:55:32.884Z,101636.97
2024-05-09T17:58:00.222Z,101640.53
2024-05-09T18:02:56.415Z,101641.69
2024-05-09T18:05:23.305Z,101641.06
2024-05-09T18:07:50.093Z,101640.19
2024-05-09T18:10:22.620Z,101643.69
2024-05-09T18:12:56.291Z,101647.16
2024-05-09T18:15:22.915Z,101643.09
2024-05-09T18:17:49.584Z,101648.34
2024-05-09T18:20:24.143Z,101655.31
2024-05-09T18:22:59.479Z,101651.94
2024-05-09T18:25:26.006Z,101652.94
2024-05-09T18:27:52.743Z,101654.69
2024-05-09T18:30:27.386Z,101649.63
2024-05-09T18:32:58.477Z,101643.78
2024-05-09T18:35:24.926Z,101653.47
2024-05-09T18:37:51.506Z,101657.00
2024-05-09T18:40:24.870Z,101657.03
2024-05-09T18:42:57.506Z,101658.91
2024-05-09T18:45:24.355Z,101652.06
2024-05-09T18:47:50.994Z,101649.59
2024-05-09T18:50:24.779Z,101656.53
2024-05-09T18:52:58.807Z,101671.31
2024-05-09T18:55:25.310Z,101671.34
2024-05-09T18:57:51.919Z,101670.56
2024-05-09T19:00:30.937Z,101677.56
2024-05-09T19:03:02.247Z,101681.94
2024-05-09T19:05:28.939Z,101679.50
2024-05-09T19:07:55.903Z,101686.41
2024-05-09T19:10:25.982Z,101686.50
2024-05-09T19:12:55.587Z,101683.97
2024-05-09T19:15:22.230Z,101696.94
2024-05-09T19:17:48.952Z,101690.09
2024-05-09T19:20:24.902Z,101691.81
2024-05-09T19:22:56.123Z,101697.00
2024-05-09T19:25:22.614Z,101695.31
2024-05-09T19:27:49.256Z,101692.78
2024-05-09T19:30:25.089Z,101693.66
2024-05-09T19:33:00.638Z,101691.13
2024-05-09T19:35:27.172Z,101695.41
2024-05-09T19:37:53.873Z,101695.44
2024-05-09T19:40:28.619Z,101693.72
2024-05-09T19:42:58.524Z,101701.47
2024-05-09T19:45:25.095Z,101695.47
2024-05-09T19:47:51.954Z,101704.94
2024-05-09T19:50:26.671Z,101699.78
2024-05-09T19:52:59.449Z,101704.06
2024-05-09T19:55:25.992Z,101701.47
2024-05-09T19:57:52.645Z,101706.66
2024-05-09T20:00:26.040Z,101706.66
2024-05-09T20:02:56.183Z,101710.09
2024-05-09T20:05:23.568Z,101708.38
2024-05-09T20:07:50.283Z,101711.81
2024-05-09T20:10:23.635Z,101714.38
2024-05-09T20:12:53.414Z,101712.66
2024-05-09T20:15:19.982Z,101714.34
2024-05-09T20:17:46.642Z,101707.47
2024-05-09T20:20:23.557Z,101717.75
2024-05-09T20:22:58.283Z,101711.72
2024-05-09T20:25:24.876Z,101717.75
2024-05-09T20:27:51.536Z,101714.28
2024-05-09T20:30:25.433Z,101717.69
2024-05-09T20:32:59.982Z,101717.69
2024-05-09T20:35:28.015Z,101715.06
2024-05-09T20:37:54.558Z,101714.19
2024-05-09T20:40:28.745Z,101717.59
2024-05-09T20:42:59.646Z,101715.88
2024-05-09T20:45:26.396Z,101715.84
2024-05-09T20:47:53.164Z,101716.72
2024-05-09T20:50:28.429Z,101711.56
2024-05-09T20:53:02.979Z,101709.84
2024-05-09T20:55:29.600Z,101709.78
2024-05-09T20:57:56.229Z,101713.22
2024-05-09T21:00:29.998Z,101710.59
2024-05-09T21:03:04.771Z,101705.41
2024-05-09T21:05:31.844Z,101710.53
2024-05-09T21:07:58.725Z,101707.09
2024-05-09T21:10:27.127Z,101713.06
2024-05-09T21:12:56.475Z,101713.03
2024-05-09T21:15:23.049Z,101716.38
2024-05-09T21:17:49.772Z,101712.06
2024-05-09T21:20:20.615Z,101719.75
2024-05-09T21:22:50.899Z,101716.31
2024-05-09T21:25:17.523Z,101715.44
2024-05-09T21:27:44.242Z,101723.97
2024-05-09T21:30:18.431Z,101720.50
2024-05-09T21:32:49.836Z,101722.22
2024-05-09T21:35:17.875Z,101717.03
2024-05-09T21:37:44.579Z,101720.41
2024-05-09T21:40:14.054Z,101720.34
2024-05-09T21:42:48.551Z,101722.88
2024-05-09T21:45:15.223Z,101722.81
2024-05-09T21:47:42.242Z,101721.03
2024-05-09T21:50:12.552Z,101720.16
2024-05-09T21:52:46.237Z,101716.66
2024-05-09T21:55:13.092Z,101715.75
2024-05-09T21:57:39.732Z,101718.22
2024-05-09T22:00:11.040Z,101718.22
2024-05-09T22:02:38.151Z,101713.88
2024-05-09T22:05:05.120Z,101715.53
2024-05-09T22:07:34.399Z,101708.66
2024-05-09T22:10:01.058Z,101711.16
2024-05-09T22:12:28.871Z,101706.84
2024-05-09T22:14:55.525Z,101707.66
2024-05-09T22:17:22.117Z,101705.91
2024-05-09T22:19:49.747Z,101706.72
2024-05-09T22:22:16.363Z,101704.97
2024-05-09T22:24:42.981Z,101706.63
2024-05-09T22:27:09.541Z,101698.88
2024-05-09T22:29:36.101Z,101698.03
2024-05-09T22:32:04.486Z,101702.28
2024-05-09T22:34:31.242Z,101708.28
2024-05-09T22:36:58.392Z,101709.97
2024-05-09T22:39:24.883Z,101717.59
2024-05-09T22:41:51.503Z,101712.41
2024-05-09T22:44:18.097Z,101706.34
2024-05-09T22:46:44.927Z,101705.41
2024-05-09T22:49:11.907Z,101713.06
2024-05-09T22:51:39.536Z,101710.47
2024-05-09T22:54:06.230Z,101706.13
2024-05-09T22:56:32.737Z,101710.34
2024-05-09T22:59:00.977Z,101716.28
2024-05-09T23:01:27.669Z,101707.75
2024-05-09T23:03:56.061Z,101709.44
2024-05-09T23:06:22.735Z,101719.66
2024-05-09T23:08:49.243Z,101713.63
2024-05-09T23:11:15.843Z,101713.56
2024-05-09T23:13:42.429Z,101714.38
2024-05-09T23:16:09.877Z,101700.72
2024-05-09T23:18:36.581Z,101706.66
2024-05-09T23:21:03.375Z,101702.34
2024-05-09T23:23:29.923Z,101702.28
2024-05-09T23:25:56.435Z,101701.47
2024-05-09T23:28:22.960Z,101700.56
2024-05-09T23:30:49.615Z,101699.66
2024-05-09T23:33:16.351Z,101690.19
2024-05-09T23:35:43.475Z,101695.25
2024-05-09T23:38:11.605Z,101686.63
2024-05-09T23:40:40.680Z,101691.72
2024-05-09T23:43:10.529Z,101690.81
2024-05-09T23:45:37.781Z,101691.69
2024-05-09T23:48:04.982Z,101683.09
2024-05-09T23:50:36.096Z,101683.09
2024-05-09T23:53:06.109Z,101679.56
2024-05-09T23:55:33.664Z,101682.06
2024-05-09T23:58:00.650Z,101676.88
